createdAt,value
2023-05-19T00:00:30.798Z,9.02
2023-05-19T00:02:58.319Z,9.95
2023-05-19T00:05:25.287Z,10.85
2023-05-19T00:07:52.781Z,12.45
2023-05-19T00:10:19.893Z,8.75
2023-05-19T00:12:47.162Z,9.55
2023-05-19T00:15:14.445Z,8.55
2023-05-19T00:17:42.549Z,9.20
2023-05-19T00:20:09.836Z,13.80
2023-05-19T00:22:37.098Z,11.65
2023-05-19T00:25:04.182Z,12.95
2023-05-19T00:27:31.083Z,11.35
2023-05-19T00:29:57.808Z,8.65
2023-05-19T00:32:24.647Z,10.65
2023-05-19T00:34:51.517Z,7.38
2023-05-19T00:37:18.266Z,8.15
2023-05-19T00:39:45.059Z,9.10
2023-05-19T00:42:11.929Z,9.10
2023-05-19T00:44:41.408Z,12.65
2023-05-19T00:47:08.841Z,11.60
2023-05-19T00:49:36.168Z,10.30
2023-05-19T00:52:05.742Z,9.85
2023-05-19T00:54:34.050Z,9.30
2023-05-19T00:57:01.225Z,14.68
2023-05-19T00:59:28.246Z,13.15
2023-05-19T01:01:55.036Z,12.95
2023-05-19T01:04:22.386Z,11.77
2023-05-19T01:06:55.044Z,11.40
2023-05-19T01:09:25.016Z,12.25
2023-05-19T01:11:51.813Z,7.55
2023-05-19T01:14:20.507Z,10.63
2023-05-19T01:17:07.189Z,7.80
2023-05-19T01:19:50.850Z,8.68
2023-05-19T01:22:45.378Z,10.00
2023-05-19T01:25:36.911Z,9.98
2023-05-19T01:28:06.630Z,9.65
2023-05-19T01:30:39.508Z,7.85
2023-05-19T01:33:09.564Z,10.95
2023-05-19T01:35:38.926Z,10.73
2023-05-19T01:38:08.996Z,8.05
2023-05-19T01:40:38.745Z,7.13
2023-05-19T01:43:07.932Z,14.57
2023-05-19T01:45:35.522Z,13.02
2023-05-19T01:48:04.470Z,13.90
2023-05-19T01:50:32.538Z,10.30
2023-05-19T01:53:00.537Z,14.60
2023-05-19T01:55:27.723Z,12.52
2023-05-19T01:58:26.359Z,11.15
2023-05-19T02:00:56.015Z,10.50
2023-05-19T02:03:31.848Z,8.60
2023-05-19T02:06:25.967Z,11.75
2023-05-19T02:08:55.723Z,12.55
2023-05-19T02:11:25.532Z,7.82
2023-05-19T02:13:56.513Z,11.20
2023-05-19T02:16:28.092Z,11.32
2023-05-19T02:18:55.298Z,11.55
2023-05-19T02:21:22.087Z,12.43
2023-05-19T02:23:50.789Z,14.52
2023-05-19T02:26:17.583Z,11.52
2023-05-19T02:28:44.401Z,12.13
2023-05-19T02:31:11.157Z,10.68
2023-05-19T02:33:37.861Z,11.68
2023-05-19T02:36:05.263Z,10.15
2023-05-19T02:38:32.723Z,13.15
2023-05-19T02:40:59.469Z,13.25
2023-05-19T02:43:26.234Z,11.07
2023-05-19T02:45:53.072Z,12.60
2023-05-19T02:48:19.816Z,12.52
2023-05-19T02:50:46.693Z,18.58
2023-05-19T02:53:13.434Z,14.13
2023-05-19T02:55:40.199Z,13.18
2023-05-19T02:58:07.133Z,8.70
2023-05-19T03:00:34.128Z,15.77
2023-05-19T03:03:02.946Z,13.77
2023-05-19T03:05:32.755Z,11.90
2023-05-19T03:07:59.559Z,9.80
2023-05-19T03:10:26.278Z,12.18
2023-05-19T03:12:52.994Z,18.20
2023-05-19T03:15:20.933Z,12.48
2023-05-19T03:17:48.172Z,10.25
2023-05-19T03:20:17.966Z,10.70
2023-05-19T03:22:44.728Z,11.45
2023-05-19T03:25:11.492Z,13.35
2023-05-19T03:27:38.224Z,13.52
2023-05-19T03:30:06.747Z,10.02
2023-05-19T03:32:34.053Z,14.75
2023-05-19T03:35:01.218Z,12.90
2023-05-19T03:37:27.968Z,13.63
2023-05-19T03:39:54.685Z,16.05
2023-05-19T03:42:21.461Z,18.65
2023-05-19T03:44:48.459Z,18.77
2023-05-19T03:47:15.342Z,11.25
2023-05-19T03:49:42.144Z,16.52
2023-05-19T03:52:09.926Z,16.85
2023-05-19T03:54:38.916Z,14.55
2023-05-19T03:57:08.739Z,17.17
2023-05-19T03:59:37.264Z,12.60
2023-05-19T04:02:04.332Z,16.92
2023-05-19T04:04:31.516Z,13.25
2023-05-19T04:06:58.463Z,12.32
2023-05-19T04:09:25.230Z,13.63
2023-05-19T04:11:52.129Z,16.33
2023-05-19T04:14:20.114Z,16.35
2023-05-19T04:16:46.912Z,18.50
2023-05-19T04:19:13.712Z,16.98
2023-05-19T04:21:40.450Z,18.02
2023-05-19T04:24:07.374Z,17.83
2023-05-19T04:26:34.683Z,22.40
2023-05-19T04:29:04.654Z,15.45
2023-05-19T04:31:31.563Z,16.42
2023-05-19T04:33:58.360Z,15.65
2023-05-19T04:36:25.187Z,16.83
2023-05-19T04:38:54.875Z,18.13
2023-05-19T04:41:22.003Z,17.27
2023-05-19T04:43:50.085Z,14.13
2023-05-19T04:46:16.925Z,16.20
2023-05-19T04:48:44.099Z,16.23
2023-05-19T04:51:14.335Z,14.35
2023-05-19T04:53:42.201Z,16.85
2023-05-19T04:56:09.658Z,16.23
2023-05-19T04:58:39.581Z,17.95
2023-05-19T05:01:09.660Z,13.15
2023-05-19T05:03:36.806Z,16.67
2023-05-19T05:06:04.622Z,18.02
2023-05-19T05:08:32.227Z,16.38
2023-05-19T05:10:59.512Z,18.33
2023-05-19T05:13:26.598Z,14.77
2023-05-19T05:15:54.279Z,18.85
2023-05-19T05:18:21.380Z,20.52
2023-05-19T05:20:48.481Z,18.65
2023-05-19T05:23:16.907Z,16.23
2023-05-19T05:25:44.605Z,15.40
2023-05-19T05:28:11.759Z,17.67
2023-05-19T05:30:38.654Z,18.80
2023-05-19T05:33:06.463Z,14.48
2023-05-19T05:35:33.511Z,16.20
2023-05-19T05:38:01.730Z,15.32
2023-05-19T05:40:28.557Z,23.75
2023-05-19T05:42:55.748Z,16.73
2023-05-19T05:45:25.832Z,19.02
2023-05-19T05:47:53.020Z,17.63
2023-05-19T05:50:20.198Z,22.25
2023-05-19T05:52:48.316Z,21.13
2023-05-19T05:55:17.570Z,17.75
2023-05-19T05:57:44.653Z,23.42
2023-05-19T06:00:17.728Z,21.02
2023-05-19T06:02:50.729Z,21.60
2023-05-19T06:05:17.877Z,27.17
2023-05-19T06:07:44.662Z,26.38
2023-05-19T06:10:11.714Z,25.02
2023-05-19T06:12:43.202Z,20.30
2023-05-19T06:15:10.576Z,23.50
2023-05-19T06:17:37.456Z,26.98
2023-05-19T06:20:08.799Z,28.30
2023-05-19T06:22:36.003Z,20.45
2023-05-19T06:25:03.660Z,18.05
2023-05-19T06:27:32.646Z,26.63
2023-05-19T06:30:01.392Z,21.40
2023-05-19T06:32:29.700Z,24.40
2023-05-19T06:34:56.606Z,24.42
2023-05-19T06:37:23.788Z,21.63
2023-05-19T06:39:54.654Z,22.08
2023-05-19T06:42:25.326Z,24.02
2023-05-19T06:44:52.939Z,23.73
2023-05-19T06:47:20.031Z,21.15
2023-05-19T06:49:50.777Z,18.02
2023-05-19T06:52:17.745Z,20.45
2023-05-19T06:54:44.524Z,18.27
2023-05-19T06:57:11.222Z,20.98
2023-05-19T06:59:40.820Z,24.20
2023-05-19T07:02:08.578Z,21.13
2023-05-19T07:04:36.669Z,20.50
2023-05-19T07:07:05.827Z,16.10
2023-05-19T07:09:33.830Z,21.23
2023-05-19T07:12:02.388Z,19.58
2023-05-19T07:14:30.496Z,19.08
2023-05-19T07:16:57.671Z,17.52
2023-05-19T07:19:25.482Z,18.20
2023-05-19T07:21:58.711Z,16.42
2023-05-19T07:24:39.584Z,18.75
2023-05-19T07:27:07.088Z,17.08
2023-05-19T07:29:34.784Z,19.23
2023-05-19T07:32:10.439Z,12.63
2023-05-19T07:34:38.344Z,17.33
2023-05-19T07:37:09.453Z,15.30
2023-05-19T07:39:38.381Z,17.75
2023-05-19T07:42:06.191Z,16.52
2023-05-19T07:44:53.394Z,16.52
2023-05-19T07:47:21.606Z,14.63
2023-05-19T07:49:51.773Z,20.40
2023-05-19T07:54:54.927Z,15.55
2023-05-19T07:57:22.541Z,16.83
2023-05-19T07:59:50.289Z,13.00
2023-05-19T08:02:30.176Z,16.67
2023-05-19T08:05:01.705Z,14.10
2023-05-19T08:07:36.248Z,12.60
2023-05-19T08:10:05.175Z,12.57
2023-05-19T08:12:35.530Z,15.75
2023-05-19T08:15:13.707Z,13.43
2023-05-19T08:17:53.110Z,14.40
2023-05-19T08:20:23.658Z,15.15
2023-05-19T08:23:02.414Z,15.57
2023-05-19T08:25:30.410Z,14.45
2023-05-19T08:27:58.682Z,11.95
2023-05-19T08:30:26.825Z,12.65
2023-05-19T08:32:54.506Z,11.18
2023-05-19T08:35:22.479Z,9.75
2023-05-19T08:37:51.595Z,10.80
2023-05-19T08:40:21.489Z,12.02
2023-05-19T08:42:52.632Z,13.25
2023-05-19T08:45:31.516Z,12.57
2023-05-19T08:48:00.273Z,13.00
2023-05-19T08:50:34.190Z,12.40
2023-05-19T08:53:32.321Z,14.05
2023-05-19T08:56:23.507Z,15.02
2023-05-19T08:58:52.376Z,12.40
2023-05-19T09:01:21.396Z,11.77
2023-05-19T09:03:50.876Z,13.38
2023-05-19T09:06:21.133Z,12.82
2023-05-19T09:08:49.467Z,17.50
2023-05-19T09:11:20.254Z,12.85
2023-05-19T09:13:49.457Z,8.75
2023-05-19T09:16:18.908Z,15.13
2023-05-19T09:19:12.358Z,9.93
2023-05-19T09:21:40.137Z,13.48
2023-05-19T09:24:08.892Z,12.68
2023-05-19T09:26:40.824Z,14.38
2023-05-19T09:29:27.545Z,14.30
2023-05-19T09:32:01.249Z,12.73
2023-05-19T09:34:29.807Z,14.52
2023-05-19T09:36:58.432Z,13.75
2023-05-19T09:39:26.460Z,13.18
2023-05-19T09:41:55.622Z,10.30
2023-05-19T09:44:31.466Z,11.93
2023-05-19T09:47:03.322Z,11.38
2023-05-19T09:49:57.995Z,12.57
2023-05-19T09:52:34.970Z,11.70
2023-05-19T09:55:05.041Z,9.07
2023-05-19T10:00:21.135Z,11.80
2023-05-19T10:02:51.077Z,12.15
2023-05-19T10:05:23.312Z,13.43
2023-05-19T10:07:52.888Z,12.88
2023-05-19T10:10:23.653Z,11.07
2023-05-19T10:12:52.636Z,8.85
2023-05-19T10:15:23.134Z,19.90
2023-05-19T10:17:52.443Z,8.77
2023-05-19T10:20:20.662Z,9.82
2023-05-19T10:22:49.904Z,10.93
2023-05-19T10:25:20.183Z,9.90
2023-05-19T10:27:58.103Z,8.68
2023-05-19T10:30:47.755Z,10.05
2023-05-19T10:33:20.183Z,11.27
2023-05-19T10:36:23.033Z,11.05
2023-05-19T10:39:35.469Z,7.88
2023-05-19T10:42:24.420Z,9.82
2023-05-19T10:52:41.477Z,9.38
2023-05-19T10:55:16.140Z,11.75
2023-05-19T10:57:58.857Z,8.75
2023-05-19T11:00:32.199Z,8.18
2023-05-19T11:03:43.313Z,8.50
2023-05-19T11:06:28.317Z,9.98
2023-05-19T11:08:59.052Z,7.03
2023-05-19T11:11:26.864Z,8.98
2023-05-19T11:13:57.054Z,9.73
2023-05-19T11:16:32.565Z,9.10
2023-05-19T11:18:59.957Z,8.13
2023-05-19T11:21:59.330Z,10.68
2023-05-19T11:24:48.233Z,9.27
2023-05-19T11:27:28.863Z,9.43
2023-05-19T11:29:59.176Z,10.65
2023-05-19T11:32:37.495Z,8.10
2023-05-19T11:35:04.856Z,8.95
2023-05-19T11:37:32.784Z,10.38
2023-05-19T11:40:02.954Z,11.50
2023-05-19T11:42:37.900Z,9.00
2023-05-19T11:45:06.438Z,9.32
2023-05-19T11:47:45.875Z,10.10
2023-05-19T11:50:14.652Z,12.00
2023-05-19T11:52:49.728Z,10.35
2023-05-19T11:55:24.340Z,10.07
2023-05-19T11:58:05.059Z,10.60
2023-05-19T12:00:39.710Z,11.38
2023-05-19T12:03:08.870Z,13.53
2023-05-19T12:05:43.340Z,16.13
2023-05-19T12:08:13.427Z,14.55
2023-05-19T12:10:43.226Z,16.17
2023-05-19T12:13:20.222Z,17.88
2023-05-19T12:15:47.540Z,16.48
2023-05-19T12:18:14.861Z,15.13
2023-05-19T12:20:44.329Z,15.13
2023-05-19T12:23:12.070Z,15.90
2023-05-19T12:25:39.366Z,17.33
2023-05-19T12:28:07.359Z,18.20
2023-05-19T12:30:37.689Z,15.88
2023-05-19T12:33:05.564Z,17.53
2023-05-19T12:35:36.679Z,17.25
2023-05-19T12:38:09.718Z,19.52
2023-05-19T12:40:37.919Z,16.02
2023-05-19T12:43:07.077Z,18.75
2023-05-19T12:45:39.166Z,18.10
2023-05-19T12:48:13.675Z,18.70
2023-05-19T12:50:41.921Z,18.92
2023-05-19T12:53:13.109Z,18.67
2023-05-19T12:55:46.834Z,17.55
2023-05-19T12:58:16.031Z,17.63
2023-05-19T13:00:54.825Z,18.40
2023-05-19T13:03:26.711Z,13.82
2023-05-19T13:08:25.483Z,14.02
2023-05-19T13:10:52.557Z,18.15
2023-05-19T13:13:19.653Z,17.35
2023-05-19T13:15:49.404Z,16.13
2023-05-19T13:18:17.747Z,20.52
2023-05-19T13:20:47.371Z,19.75
2023-05-19T13:23:15.725Z,15.73
2023-05-19T13:25:43.436Z,18.98
2023-05-19T13:28:10.919Z,16.88
2023-05-19T13:30:50.390Z,18.52
2023-05-19T13:33:17.788Z,17.25
2023-05-19T13:35:45.400Z,17.55
2023-05-19T13:38:14.753Z,19.20
2023-05-19T13:40:47.545Z,20.27
2023-05-19T13:43:15.083Z,18.83
2023-05-19T13:45:44.707Z,19.92
2023-05-19T13:48:20.815Z,15.77
2023-05-19T13:50:49.168Z,17.55
2023-05-19T13:53:23.680Z,15.80
2023-05-19T13:55:53.971Z,18.00
2023-05-19T13:58:21.264Z,15.40
2023-05-19T14:00:50.017Z,16.23
2023-05-19T14:03:19.900Z,18.70
2023-05-19T14:05:51.292Z,13.65
2023-05-19T14:08:19.480Z,13.93
2023-05-19T14:10:56.338Z,15.20
2023-05-19T14:15:55.819Z,15.35
2023-05-19T14:18:22.894Z,13.18
2023-05-19T14:21:02.921Z,16.92
2023-05-19T14:23:30.647Z,14.45
2023-05-19T14:25:57.514Z,15.02
2023-05-19T14:28:25.141Z,13.15
2023-05-19T14:30:55.117Z,13.38
2023-05-19T14:33:23.143Z,15.20
2023-05-19T14:35:51.460Z,15.10
2023-05-19T14:38:18.829Z,15.05
2023-05-19T14:40:46.504Z,11.95
2023-05-19T14:43:23.645Z,14.65
2023-05-19T14:46:03.690Z,14.50
2023-05-19T14:48:31.038Z,14.57
2023-05-19T14:50:59.418Z,14.23
2023-05-19T14:53:31.713Z,13.52
2023-05-19T14:55:58.975Z,14.77
2023-05-19T14:58:28.258Z,15.15
2023-05-19T15:01:01.121Z,15.50
2023-05-19T15:03:29.852Z,14.38
2023-05-19T15:05:56.979Z,13.52
2023-05-19T15:08:25.309Z,14.23
2023-05-19T15:10:52.412Z,14.05
2023-05-19T15:13:19.312Z,13.45
2023-05-19T15:15:46.581Z,15.70
2023-05-19T15:18:17.742Z,13.25
2023-05-19T15:20:46.623Z,14.88
2023-05-19T15:23:13.652Z,15.02
2023-05-19T15:25:41.861Z,14.13
2023-05-19T15:28:12.980Z,15.05
2023-05-19T15:30:40.083Z,13.97
2023-05-19T15:33:14.495Z,13.25
2023-05-19T15:35:41.634Z,12.97
2023-05-19T15:38:08.739Z,12.30
2023-05-19T15:40:36.170Z,14.50
2023-05-19T15:43:08.604Z,14.23
2023-05-19T15:45:36.114Z,13.67
2023-05-19T15:48:06.216Z,13.82
2023-05-19T15:50:33.394Z,12.20
2023-05-19T15:53:00.321Z,12.02
2023-05-19T15:55:27.195Z,12.15
2023-05-19T15:57:57.602Z,12.15
2023-05-19T16:00:24.490Z,11.13
2023-05-19T16:02:53.297Z,12.35
2023-05-19T16:05:20.288Z,13.10
2023-05-19T16:07:47.237Z,12.47
2023-05-19T16:10:14.206Z,11.05
2023-05-19T16:12:43.542Z,11.85
2023-05-19T16:15:14.488Z,11.73
2023-05-19T16:17:41.710Z,13.13
2023-05-19T16:20:17.411Z,10.77
2023-05-19T16:22:47.418Z,11.82
2023-05-19T16:25:20.596Z,12.63
2023-05-19T16:27:48.018Z,12.20
2023-05-19T16:30:19.308Z,10.93
2023-05-19T16:32:54.145Z,15.85
2023-05-19T16:35:27.991Z,11.95
2023-05-19T16:37:57.597Z,10.38
2023-05-19T16:40:24.787Z,12.02
2023-05-19T16:43:04.232Z,10.33
2023-05-19T16:45:32.059Z,11.35
2023-05-19T16:48:01.386Z,11.63
2023-05-19T16:50:28.427Z,11.32
2023-05-19T16:52:56.090Z,10.75
2023-05-19T16:55:34.438Z,12.50
2023-05-19T16:58:03.862Z,10.15
2023-05-19T17:00:32.359Z,9.83
2023-05-19T17:03:01.975Z,10.75
2023-05-19T17:05:31.949Z,10.80
2023-05-19T17:08:09.289Z,9.98
2023-05-19T17:10:41.807Z,10.23
2023-05-19T17:13:14.401Z,10.63
2023-05-19T17:15:44.205Z,11.05
2023-05-19T17:18:23.162Z,9.80
2023-05-19T17:20:50.668Z,11.30
2023-05-19T17:23:21.121Z,9.30
2023-05-19T17:25:48.585Z,10.50
2023-05-19T17:28:15.795Z,10.35
2023-05-19T17:30:44.251Z,10.63
2023-05-19T17:33:11.701Z,9.23
2023-05-19T17:35:39.874Z,9.55
2023-05-19T17:38:08.683Z,11.55
2023-05-19T17:40:43.122Z,8.02
2023-05-19T17:43:10.357Z,11.48
2023-05-19T17:45:44.795Z,10.70
2023-05-19T17:48:14.483Z,11.50
2023-05-19T17:50:50.588Z,9.90
2023-05-19T17:53:21.820Z,9.90
2023-05-19T17:56:05.199Z,11.55
2023-05-19T17:58:34.026Z,8.68
2023-05-19T18:01:03.464Z,10.67
2023-05-19T18:03:34.381Z,9.35
2023-05-19T18:06:01.765Z,10.20
2023-05-19T18:08:38.561Z,10.57
2023-05-19T18:11:09.691Z,12.13
2023-05-19T18:13:37.794Z,9.33
2023-05-19T18:16:05.511Z,8.82
2023-05-19T18:18:45.218Z,10.55
2023-05-19T18:21:23.976Z,10.48
2023-05-19T18:23:52.094Z,11.13
2023-05-19T18:26:22.176Z,10.73
2023-05-19T18:28:57.421Z,11.33
2023-05-19T18:31:27.477Z,9.90
2023-05-19T18:33:56.935Z,9.93
2023-05-19T18:36:23.890Z,7.32
2023-05-19T18:38:50.930Z,9.23
2023-05-19T18:41:25.871Z,9.45
2023-05-19T18:43:52.999Z,13.05
2023-05-19T18:46:20.402Z,9.73
2023-05-19T18:48:47.398Z,10.40
2023-05-19T18:51:18.725Z,7.53
2023-05-19T18:53:48.715Z,9.68
2023-05-19T18:58:49.423Z,12.65
2023-05-19T19:06:24.957Z,11.63
2023-05-19T19:08:51.901Z,10.98
2023-05-19T19:11:29.324Z,10.68
2023-05-19T19:13:59.757Z,10.43
2023-05-19T19:16:27.159Z,11.25
2023-05-19T19:18:57.822Z,8.10
2023-05-19T19:21:28.372Z,10.82
2023-05-19T19:23:57.386Z,10.43
2023-05-19T19:26:29.728Z,8.07
2023-05-19T19:29:05.687Z,9.65
2023-05-19T19:31:34.339Z,12.23
2023-05-19T19:34:05.584Z,7.53
2023-05-19T19:36:41.369Z,9.95
2023-05-19T19:39:14.696Z,8.60
2023-05-19T19:41:42.558Z,10.63
2023-05-19T19:44:10.314Z,11.38
2023-05-19T19:46:39.740Z,10.30
2023-05-19T19:49:20.307Z,10.40
2023-05-19T19:51:54.059Z,11.75
2023-05-19T19:54:29.250Z,8.82
2023-05-19T19:56:56.846Z,11.10
2023-05-19T20:06:57.541Z,10.50
2023-05-19T20:09:24.758Z,11.52
2023-05-19T20:11:52.252Z,12.50
2023-05-19T20:16:52.262Z,13.50
2023-05-19T20:19:22.289Z,11.98
2023-05-19T20:24:16.117Z,10.90
2023-05-19T20:26:50.904Z,15.02
2023-05-19T20:29:17.795Z,10.98
2023-05-19T20:31:46.951Z,9.90
2023-05-19T20:34:13.674Z,8.00
2023-05-19T20:36:40.735Z,12.40
2023-05-19T20:39:09.585Z,9.40
2023-05-19T20:41:36.678Z,12.50
2023-05-19T20:44:03.690Z,10.88
2023-05-19T20:46:30.461Z,11.32
2023-05-19T20:48:57.274Z,9.25
2023-05-19T20:51:25.371Z,8.93
2023-05-19T20:53:52.215Z,11.20
2023-05-19T20:56:19.963Z,8.00
2023-05-19T20:58:46.759Z,12.25
2023-05-19T21:01:13.546Z,16.88
2023-05-19T21:03:40.398Z,9.43
2023-05-19T21:06:07.133Z,10.65
2023-05-19T21:08:33.877Z,12.30
2023-05-19T21:11:00.633Z,13.98
2023-05-19T21:13:27.452Z,12.88
2023-05-19T21:15:56.339Z,8.88
2023-05-19T21:18:23.136Z,10.90
2023-05-19T21:20:49.958Z,12.38
2023-05-19T21:23:16.689Z,11.07
2023-05-19T21:25:45.304Z,9.48
2023-05-19T21:28:12.409Z,9.70
2023-05-19T21:30:39.177Z,9.23
2023-05-19T21:33:05.949Z,10.23
2023-05-19T21:35:32.957Z,11.13
2023-05-19T21:38:08.921Z,11.32
2023-05-19T21:40:43.103Z,8.50
2023-05-19T21:43:22.799Z,13.18
2023-05-19T21:45:50.436Z,8.77
2023-05-19T21:48:27.571Z,11.70
2023-05-19T21:50:55.406Z,10.50
2023-05-19T21:53:22.389Z,11.20
2023-05-19T21:55:49.471Z,9.65
2023-05-19T21:58:24.013Z,10.45
2023-05-19T22:00:53.265Z,9.38
2023-05-19T22:03:20.776Z,11.73
2023-05-19T22:05:55.001Z,10.52
2023-05-19T22:08:26.150Z,16.20
2023-05-19T22:10:53.044Z,11.43
2023-05-19T22:13:20.849Z,10.38
2023-05-19T22:15:47.747Z,18.92
2023-05-19T22:18:24.609Z,8.55
2023-05-19T22:20:51.467Z,17.23
2023-05-19T22:23:18.342Z,13.25
2023-05-19T22:25:45.097Z,11.85
2023-05-19T22:28:11.851Z,8.00
2023-05-19T22:30:42.300Z,9.75
2023-05-19T22:33:09.557Z,12.68
2023-05-19T22:35:36.614Z,10.60
2023-05-19T22:38:03.553Z,12.50
2023-05-19T22:40:30.442Z,8.63
2023-05-19T22:42:57.278Z,12.73
2023-05-19T22:45:24.049Z,10.10
2023-05-19T22:47:51.177Z,10.52
2023-05-19T22:50:18.134Z,10.15
2023-05-19T22:52:45.002Z,9.50
2023-05-19T22:55:11.682Z,9.63
2023-05-19T22:57:38.465Z,13.07
2023-05-19T23:00:05.830Z,11.05
2023-05-19T23:02:33.188Z,10.90
2023-05-19T23:05:00.056Z,12.18
2023-05-19T23:07:27.138Z,10.25
2023-05-19T23:09:54.028Z,9.45
2023-05-19T23:12:21.238Z,11.40
2023-05-19T23:14:48.516Z,10.00
2023-05-19T23:17:15.429Z,13.13
2023-05-19T23:19:42.786Z,10.35
2023-05-19T23:22:11.194Z,10.40
2023-05-19T23:24:49.278Z,8.98
2023-05-19T23:27:16.521Z,13.23
2023-05-19T23:29:47.512Z,12.60
2023-05-19T23:32:14.974Z,10.57
2023-05-19T23:34:41.942Z,12.25
2023-05-19T23:37:08.818Z,9.85
2023-05-19T23:39:36.123Z,14.07
2023-05-19T23:42:03.564Z,14.50
2023-05-19T23:44:30.696Z,10.65
2023-05-19T23:46:57.757Z,11.30
2023-05-19T23:49:24.605Z,10.15
2023-05-19T23:51:51.711Z,14.18
2023-05-19T23:54:18.950Z,12.40
2023-05-19T23:56:46.238Z,10.65
2023-05-19T23:59:13.083Z,12.77
